AEE501 LEBB-LEZL
Flight info
| Callsign | AEE501 |
|---|---|
| Flight time | 1h 12m |
| Altitude | 33000 |
| Route | AMTOS L14 NEA DCT NONTU DCT ORBIS DCT DISKO DCT TLD DCT DOPEN DCT MONTO DCT MOLIN DCT HIJ |
| Aircraft | A320/M-SDE3FGHIRWY/LB1 |
Departure
| Time | 2026-04-29 11:56 |
|---|---|
| Airport | Bilbao Airport (LEBB) |
Arrival
| Time | 2026-04-29 13:08 |
|---|---|
| Airport | Seville Airport (LEZL) |
| Time | Latitude | Longitude | Altitude | Speed | Heading |
|---|---|---|---|---|---|
| 2026-04-29 11:36 | 43.30424 | -2.90636 | 159 ft | 0 kts | 26° |
| 2026-04-29 11:46 | 43.30417 | -2.90641 | 158 ft | 2 kts | 26° |
| 2026-04-29 11:46 | 43.30404 | -2.90650 | 158 ft | 1 kts | 26° |
| 2026-04-29 11:47 | 43.30395 | -2.90656 | 158 ft | 2 kts | 16° |
| 2026-04-29 11:47 | 43.30380 | -2.90658 | 157 ft | 2 kts | 356° |
| 2026-04-29 11:47 | 43.30365 | -2.90654 | 157 ft | 2 kts | 337° |
| 2026-04-29 11:47 | 43.30352 | -2.90644 | 156 ft | 2 kts | 318° |
| 2026-04-29 11:48 | 43.30343 | -2.90629 | 156 ft | 1 kts | 300° |
| 2026-04-29 11:48 | 43.30340 | -2.90621 | 156 ft | 1 kts | 294° |
| 2026-04-29 11:48 | 43.30339 | -2.90618 | 156 ft | 0 kts | 296° |
| 2026-04-29 11:50 | 43.30345 | -2.90633 | 156 ft | 3 kts | 296° |
| 2026-04-29 11:50 | 43.30362 | -2.90681 | 157 ft | 6 kts | 297° |
| 2026-04-29 11:51 | 43.30383 | -2.90736 | 157 ft | 7 kts | 296° |
| 2026-04-29 11:51 | 43.30405 | -2.90799 | 158 ft | 7 kts | 289° |
| 2026-04-29 11:51 | 43.30405 | -2.90884 | 157 ft | 10 kts | 267° |
| 2026-04-29 11:51 | 43.30383 | -2.90985 | 154 ft | 13 kts | 216° |
| 2026-04-29 11:52 | 43.30307 | -2.91047 | 152 ft | 12 kts | 240° |
| 2026-04-29 11:52 | 43.30335 | -2.91171 | 150 ft | 15 kts | 297° |
| 2026-04-29 11:52 | 43.30386 | -2.91308 | 149 ft | 16 kts | 296° |
| 2026-04-29 11:52 | 43.30438 | -2.91449 | 148 ft | 16 kts | 296° |
| 2026-04-29 11:53 | 43.30490 | -2.91592 | 146 ft | 17 kts | 297° |
| 2026-04-29 11:53 | 43.30548 | -2.91749 | 143 ft | 19 kts | 296° |
| 2026-04-29 11:53 | 43.30607 | -2.91907 | 140 ft | 18 kts | 297° |
| 2026-04-29 11:53 | 43.30666 | -2.92069 | 138 ft | 19 kts | 296° |
| 2026-04-29 11:54 | 43.30732 | -2.92249 | 132 ft | 22 kts | 297° |
| 2026-04-29 11:54 | 43.30793 | -2.92415 | 127 ft | 17 kts | 297° |
| 2026-04-29 11:54 | 43.30774 | -2.92509 | 125 ft | 9 kts | 188° |
| 2026-04-29 11:54 | 43.30689 | -2.92479 | 125 ft | 12 kts | 161° |
| 2026-04-29 11:55 | 43.30605 | -2.92402 | 127 ft | 17 kts | 124° |
| 2026-04-29 11:55 | 43.30496 | -2.92117 | 134 ft | 65 kts | 116° |
| 2026-04-29 11:55 | 43.30187 | -2.91274 | 145 ft | 130 kts | 117° |
| 2026-04-29 11:55 | 43.29724 | -2.90013 | 404 ft | 158 kts | 118° |
| 2026-04-29 11:56 | 43.29323 | -2.88910 | 909 ft | 159 kts | 117° |
| 2026-04-29 11:56 | 43.28751 | -2.87344 | 1769 ft | 157 kts | 118° |
| 2026-04-29 11:56 | 43.28253 | -2.85986 | 2305 ft | 167 kts | 118° |
| 2026-04-29 11:56 | 43.27704 | -2.84491 | 2794 ft | 184 kts | 119° |
| 2026-04-29 11:57 | 43.27100 | -2.82872 | 3241 ft | 203 kts | 119° |
| 2026-04-29 11:57 | 43.26433 | -2.81081 | 3727 ft | 222 kts | 119° |
| 2026-04-29 11:57 | 43.25840 | -2.79472 | 4165 ft | 238 kts | 119° |
| 2026-04-29 11:57 | 43.24925 | -2.77002 | 4850 ft | 256 kts | 119° |
| 2026-04-29 11:58 | 43.24057 | -2.74867 | 5686 ft | 258 kts | 132° |
| 2026-04-29 11:58 | 43.22626 | -2.73481 | 6502 ft | 257 kts | 164° |
| 2026-04-29 11:58 | 43.20878 | -2.73405 | 7323 ft | 258 kts | 193° |
| 2026-04-29 11:58 | 43.19200 | -2.74288 | 8135 ft | 263 kts | 207° |
| 2026-04-29 11:59 | 43.17683 | -2.75652 | 9029 ft | 264 kts | 217° |
| 2026-04-29 11:59 | 43.16343 | -2.77334 | 9930 ft | 265 kts | 225° |
| 2026-04-29 11:59 | 43.15167 | -2.79280 | 10621 ft | 273 kts | 232° |
| 2026-04-29 11:59 | 43.14135 | -2.81532 | 11101 ft | 289 kts | 239° |
| 2026-04-29 12:00 | 43.13392 | -2.83700 | 11702 ft | 295 kts | 245° |
| 2026-04-29 12:00 | 43.12662 | -2.86752 | 12565 ft | 301 kts | 252° |
| 2026-04-29 12:00 | 43.12268 | -2.89551 | 13240 ft | 308 kts | 258° |
| 2026-04-29 12:00 | 43.12114 | -2.92488 | 13913 ft | 314 kts | 265° |
| 2026-04-29 12:01 | 43.12223 | -2.95501 | 14528 ft | 323 kts | 272° |
| 2026-04-29 12:01 | 43.12613 | -2.98548 | 15083 ft | 332 kts | 279° |
| 2026-04-29 12:01 | 43.13238 | -3.01353 | 15650 ft | 339 kts | 286° |
| 2026-04-29 12:01 | 43.14044 | -3.04656 | 16309 ft | 340 kts | 278° |
| 2026-04-29 12:02 | 43.14187 | -3.07819 | 16894 ft | 335 kts | 258° |
| 2026-04-29 12:02 | 43.13484 | -3.10789 | 17446 ft | 329 kts | 237° |
| 2026-04-29 12:02 | 43.12135 | -3.13016 | 18002 ft | 326 kts | 218° |
| 2026-04-29 12:02 | 43.10035 | -3.14605 | 18624 ft | 326 kts | 196° |
| 2026-04-29 12:03 | 43.07838 | -3.15311 | 19272 ft | 327 kts | 194° |
| 2026-04-29 12:03 | 43.05749 | -3.16542 | 19735 ft | 334 kts | 213° |
| 2026-04-29 12:03 | 43.03856 | -3.18361 | 20314 ft | 336 kts | 215° |
| 2026-04-29 12:03 | 43.01937 | -3.20230 | 20811 ft | 341 kts | 214° |
| 2026-04-29 12:04 | 42.99987 | -3.22148 | 21377 ft | 344 kts | 212° |
| 2026-04-29 12:04 | 42.98039 | -3.24002 | 21897 ft | 347 kts | 212° |
| 2026-04-29 12:04 | 42.96039 | -3.25849 | 22411 ft | 349 kts | 213° |
| 2026-04-29 12:04 | 42.94018 | -3.27713 | 22958 ft | 351 kts | 213° |
| 2026-04-29 12:05 | 42.92654 | -3.28972 | 23265 ft | 354 kts | 212° |
| 2026-04-29 12:05 | 42.89940 | -3.31468 | 23893 ft | 357 kts | 213° |
| 2026-04-29 12:05 | 42.87882 | -3.33376 | 24391 ft | 359 kts | 212° |
| 2026-04-29 12:05 | 42.85799 | -3.35304 | 24882 ft | 362 kts | 212° |
| 2026-04-29 12:06 | 42.83715 | -3.37233 | 25318 ft | 365 kts | 212° |
| 2026-04-29 12:06 | 42.81607 | -3.39180 | 25770 ft | 368 kts | 212° |
| 2026-04-29 12:06 | 42.79504 | -3.41123 | 26228 ft | 370 kts | 212° |
| 2026-04-29 12:06 | 42.77372 | -3.43091 | 26665 ft | 372 kts | 212° |
| 2026-04-29 12:07 | 42.75217 | -3.45079 | 27090 ft | 375 kts | 212° |
| 2026-04-29 12:07 | 42.73066 | -3.47062 | 27507 ft | 377 kts | 212° |
| 2026-04-29 12:07 | 42.70892 | -3.49063 | 27868 ft | 381 kts | 212° |
| 2026-04-29 12:07 | 42.68687 | -3.51090 | 28227 ft | 384 kts | 212° |
| 2026-04-29 12:08 | 42.66445 | -3.53152 | 28623 ft | 386 kts | 212° |
| 2026-04-29 12:08 | 42.64249 | -3.55165 | 28989 ft | 387 kts | 212° |
| 2026-04-29 12:08 | 42.62009 | -3.57219 | 29307 ft | 390 kts | 211° |
| 2026-04-29 12:08 | 42.59773 | -3.59275 | 29673 ft | 391 kts | 211° |
| 2026-04-29 12:09 | 42.57505 | -3.61355 | 30078 ft | 392 kts | 212° |
| 2026-04-29 12:09 | 42.55527 | -3.63165 | 30380 ft | 394 kts | 212° |
| 2026-04-29 12:09 | 42.52965 | -3.65506 | 30708 ft | 396 kts | 211° |
| 2026-04-29 12:09 | 42.50694 | -3.67578 | 30973 ft | 399 kts | 211° |
| 2026-04-29 12:10 | 42.48376 | -3.69691 | 31284 ft | 401 kts | 211° |
| 2026-04-29 12:10 | 42.46050 | -3.71805 | 31556 ft | 402 kts | 211° |
| 2026-04-29 12:10 | 42.43710 | -3.73936 | 31814 ft | 404 kts | 211° |
| 2026-04-29 12:10 | 42.41388 | -3.76050 | 32058 ft | 406 kts | 211° |
| 2026-04-29 12:11 | 42.39344 | -3.77907 | 32272 ft | 407 kts | 211° |
| 2026-04-29 12:11 | 42.36689 | -3.80320 | 32591 ft | 408 kts | 212° |
| 2026-04-29 12:11 | 42.34344 | -3.82452 | 32821 ft | 410 kts | 211° |
| 2026-04-29 12:11 | 42.31967 | -3.84606 | 32861 ft | 411 kts | 212° |
| 2026-04-29 12:12 | 42.27251 | -3.88877 | 32880 ft | 410 kts | 212° |
| 2026-04-29 12:12 | 42.22494 | -3.93176 | 32854 ft | 410 kts | 212° |
| 2026-04-29 12:13 | 42.17760 | -3.97452 | 32840 ft | 412 kts | 212° |
| 2026-04-29 12:13 | 42.13001 | -4.01737 | 32817 ft | 411 kts | 212° |
| 2026-04-29 12:14 | 42.08486 | -4.05627 | 32848 ft | 410 kts | 208° |
| 2026-04-29 12:14 | 42.03022 | -4.09035 | 32837 ft | 409 kts | 200° |
| 2026-04-29 12:15 | 41.97574 | -4.11134 | 32837 ft | 409 kts | 192° |
| 2026-04-29 12:15 | 41.91910 | -4.12148 | 32825 ft | 410 kts | 186° |
| 2026-04-29 12:16 | 41.86227 | -4.12812 | 32855 ft | 410 kts | 186° |
| 2026-04-29 12:16 | 41.80526 | -4.13467 | 32870 ft | 410 kts | 186° |
| 2026-04-29 12:17 | 41.74821 | -4.14117 | 32842 ft | 411 kts | 186° |
| 2026-04-29 12:17 | 41.69121 | -4.14764 | 32830 ft | 411 kts | 186° |
| 2026-04-29 12:18 | 41.63417 | -4.15416 | 32812 ft | 412 kts | 186° |
| 2026-04-29 12:18 | 41.57733 | -4.16056 | 32866 ft | 412 kts | 186° |
| 2026-04-29 12:19 | 41.52012 | -4.16705 | 32856 ft | 412 kts | 186° |
| 2026-04-29 12:19 | 41.46313 | -4.17347 | 32846 ft | 411 kts | 186° |
| 2026-04-29 12:20 | 41.40647 | -4.17986 | 32851 ft | 411 kts | 186° |
| 2026-04-29 12:20 | 41.34931 | -4.18623 | 32879 ft | 412 kts | 186° |
| 2026-04-29 12:21 | 41.29517 | -4.19232 | 32831 ft | 411 kts | 186° |
| 2026-04-29 12:21 | 41.23534 | -4.19902 | 32865 ft | 412 kts | 186° |
| 2026-04-29 12:22 | 41.18082 | -4.20509 | 32843 ft | 413 kts | 187° |
| 2026-04-29 12:22 | 41.12099 | -4.21181 | 32880 ft | 413 kts | 187° |
| 2026-04-29 12:23 | 41.06382 | -4.21813 | 32873 ft | 414 kts | 187° |
| 2026-04-29 12:23 | 41.00628 | -4.22452 | 32870 ft | 414 kts | 187° |
| 2026-04-29 12:24 | 40.94915 | -4.23085 | 32887 ft | 414 kts | 188° |
| 2026-04-29 12:24 | 40.89169 | -4.23729 | 32904 ft | 413 kts | 187° |
| 2026-04-29 12:25 | 40.83418 | -4.24355 | 32879 ft | 413 kts | 188° |
| 2026-04-29 12:26 | 40.74838 | -4.25307 | 32885 ft | 414 kts | 187° |
| 2026-04-29 12:26 | 40.69086 | -4.25933 | 32915 ft | 413 kts | 188° |
| 2026-04-29 12:27 | 40.63392 | -4.26555 | 32875 ft | 413 kts | 188° |
| 2026-04-29 12:27 | 40.57636 | -4.27188 | 32874 ft | 413 kts | 189° |
| 2026-04-29 12:28 | 40.51935 | -4.27818 | 32878 ft | 413 kts | 188° |
| 2026-04-29 12:28 | 40.46176 | -4.28442 | 32882 ft | 413 kts | 188° |
| 2026-04-29 12:29 | 40.40487 | -4.29066 | 32884 ft | 413 kts | 188° |
| 2026-04-29 12:29 | 40.34747 | -4.29682 | 32873 ft | 414 kts | 189° |
| 2026-04-29 12:30 | 40.29022 | -4.30303 | 32861 ft | 414 kts | 189° |
| 2026-04-29 12:30 | 40.23259 | -4.30931 | 32865 ft | 414 kts | 189° |
| 2026-04-29 12:31 | 40.17536 | -4.31551 | 32860 ft | 414 kts | 189° |
| 2026-04-29 12:31 | 40.11766 | -4.32172 | 32851 ft | 414 kts | 189° |
| 2026-04-29 12:32 | 40.06032 | -4.32787 | 32860 ft | 414 kts | 190° |
| 2026-04-29 12:32 | 40.00309 | -4.33405 | 32861 ft | 414 kts | 189° |
| 2026-04-29 12:33 | 39.94618 | -4.34279 | 32867 ft | 411 kts | 194° |
| 2026-04-29 12:33 | 39.88956 | -4.35501 | 32865 ft | 412 kts | 194° |
| 2026-04-29 12:34 | 39.83274 | -4.36716 | 32871 ft | 412 kts | 194° |
| 2026-04-29 12:34 | 39.77638 | -4.37932 | 32866 ft | 412 kts | 194° |
| 2026-04-29 12:35 | 39.72002 | -4.39136 | 32877 ft | 411 kts | 195° |
| 2026-04-29 12:35 | 39.66349 | -4.40351 | 32878 ft | 411 kts | 194° |
| 2026-04-29 12:36 | 39.60726 | -4.41548 | 32877 ft | 410 kts | 195° |
| 2026-04-29 12:36 | 39.55071 | -4.42753 | 32887 ft | 411 kts | 195° |
| 2026-04-29 12:37 | 39.49410 | -4.43953 | 32876 ft | 411 kts | 195° |
| 2026-04-29 12:37 | 39.43802 | -4.45143 | 32895 ft | 410 kts | 195° |
| 2026-04-29 12:38 | 39.38166 | -4.46336 | 32892 ft | 411 kts | 195° |
| 2026-04-29 12:38 | 39.32523 | -4.47535 | 32883 ft | 411 kts | 195° |
| 2026-04-29 12:39 | 39.26995 | -4.49037 | 32893 ft | 405 kts | 201° |
| 2026-04-29 12:39 | 39.21674 | -4.51404 | 32887 ft | 400 kts | 208° |
| 2026-04-29 12:40 | 39.16708 | -4.54552 | 32878 ft | 396 kts | 214° |
| 2026-04-29 12:40 | 39.12088 | -4.58330 | 32878 ft | 392 kts | 218° |
| 2026-04-29 12:41 | 39.07545 | -4.62184 | 32885 ft | 393 kts | 218° |
| 2026-04-29 12:41 | 39.02980 | -4.66061 | 32881 ft | 392 kts | 217° |
| 2026-04-29 12:42 | 38.98412 | -4.69944 | 32897 ft | 393 kts | 217° |
| 2026-04-29 12:42 | 38.93865 | -4.73793 | 32884 ft | 392 kts | 218° |
| 2026-04-29 12:43 | 38.89285 | -4.77669 | 32893 ft | 394 kts | 217° |
| 2026-04-29 12:43 | 38.84714 | -4.81533 | 32901 ft | 392 kts | 217° |
| 2026-04-29 12:44 | 38.80170 | -4.85364 | 32897 ft | 394 kts | 217° |
| 2026-04-29 12:44 | 38.75592 | -4.89221 | 32894 ft | 393 kts | 217° |
| 2026-04-29 12:45 | 38.71025 | -4.93057 | 32894 ft | 392 kts | 218° |
| 2026-04-29 12:45 | 38.66462 | -4.96889 | 32894 ft | 393 kts | 217° |
| 2026-04-29 12:46 | 38.61875 | -5.00734 | 32863 ft | 391 kts | 217° |
| 2026-04-29 12:46 | 38.59644 | -5.02599 | 32374 ft | 383 kts | 217° |
| 2026-04-29 12:46 | 38.57430 | -5.04449 | 31094 ft | 384 kts | 217° |
| 2026-04-29 12:46 | 38.55210 | -5.06307 | 29553 ft | 389 kts | 217° |
| 2026-04-29 12:47 | 38.52964 | -5.08163 | 27956 ft | 395 kts | 214° |
| 2026-04-29 12:47 | 38.50537 | -5.09787 | 26356 ft | 399 kts | 208° |
| 2026-04-29 12:47 | 38.48831 | -5.10686 | 25316 ft | 408 kts | 204° |
| 2026-04-29 12:47 | 38.45222 | -5.12190 | 23723 ft | 414 kts | 201° |
| 2026-04-29 12:48 | 38.42512 | -5.13258 | 23172 ft | 405 kts | 200° |
| 2026-04-29 12:48 | 38.39843 | -5.14301 | 22607 ft | 397 kts | 200° |
| 2026-04-29 12:48 | 38.37248 | -5.15313 | 22175 ft | 387 kts | 200° |
| 2026-04-29 12:48 | 38.34692 | -5.16310 | 21669 ft | 380 kts | 200° |
| 2026-04-29 12:49 | 38.32178 | -5.17291 | 21157 ft | 374 kts | 200° |
| 2026-04-29 12:49 | 38.29705 | -5.18258 | 20662 ft | 368 kts | 200° |
| 2026-04-29 12:49 | 38.27274 | -5.19207 | 20182 ft | 362 kts | 200° |
| 2026-04-29 12:49 | 38.24901 | -5.20132 | 19726 ft | 356 kts | 200° |
| 2026-04-29 12:50 | 38.22555 | -5.21048 | 19259 ft | 351 kts | 199° |
| 2026-04-29 12:50 | 38.20240 | -5.21952 | 18752 ft | 348 kts | 199° |
| 2026-04-29 12:50 | 38.17928 | -5.22853 | 18216 ft | 345 kts | 199° |
| 2026-04-29 12:50 | 38.15638 | -5.23744 | 17668 ft | 344 kts | 199° |
| 2026-04-29 12:51 | 38.13393 | -5.24615 | 17177 ft | 341 kts | 199° |
| 2026-04-29 12:51 | 38.11131 | -5.25494 | 16678 ft | 338 kts | 199° |
| 2026-04-29 12:51 | 38.08894 | -5.26363 | 16124 ft | 337 kts | 199° |
| 2026-04-29 12:51 | 38.06643 | -5.27238 | 15552 ft | 337 kts | 199° |
| 2026-04-29 12:52 | 38.04410 | -5.28104 | 15047 ft | 334 kts | 199° |
| 2026-04-29 12:52 | 38.02198 | -5.28961 | 14582 ft | 330 kts | 199° |
| 2026-04-29 12:52 | 38.00026 | -5.29802 | 14171 ft | 326 kts | 198° |
| 2026-04-29 12:52 | 37.97879 | -5.30633 | 13743 ft | 322 kts | 198° |
| 2026-04-29 12:53 | 37.95722 | -5.31468 | 13269 ft | 319 kts | 198° |
| 2026-04-29 12:53 | 37.93632 | -5.32276 | 12880 ft | 314 kts | 198° |
| 2026-04-29 12:53 | 37.91551 | -5.33079 | 12453 ft | 311 kts | 198° |
| 2026-04-29 12:53 | 37.89504 | -5.33869 | 12022 ft | 308 kts | 198° |
| 2026-04-29 12:54 | 37.87452 | -5.34663 | 11581 ft | 305 kts | 198° |
| 2026-04-29 12:54 | 37.85435 | -5.35440 | 11149 ft | 303 kts | 198° |
| 2026-04-29 12:54 | 37.83418 | -5.36218 | 10727 ft | 300 kts | 198° |
| 2026-04-29 12:54 | 37.81453 | -5.36975 | 10324 ft | 296 kts | 198° |
| 2026-04-29 12:55 | 37.79503 | -5.37726 | 10016 ft | 289 kts | 198° |
| 2026-04-29 12:55 | 37.77619 | -5.38501 | 9911 ft | 275 kts | 204° |
| 2026-04-29 12:55 | 37.75993 | -5.39637 | 9724 ft | 265 kts | 215° |
| 2026-04-29 12:55 | 37.74563 | -5.41125 | 9350 ft | 264 kts | 220° |
| 2026-04-29 12:56 | 37.73209 | -5.42650 | 8994 ft | 263 kts | 221° |
| 2026-04-29 12:56 | 37.71860 | -5.44179 | 8636 ft | 261 kts | 221° |
| 2026-04-29 12:56 | 37.70510 | -5.45704 | 8283 ft | 260 kts | 221° |
| 2026-04-29 12:56 | 37.69164 | -5.47220 | 7935 ft | 258 kts | 221° |
| 2026-04-29 12:57 | 37.67829 | -5.48721 | 7588 ft | 257 kts | 221° |
| 2026-04-29 12:57 | 37.66502 | -5.50211 | 7251 ft | 255 kts | 221° |
| 2026-04-29 12:57 | 37.65177 | -5.51696 | 6909 ft | 254 kts | 221° |
| 2026-04-29 12:57 | 37.63875 | -5.53173 | 6582 ft | 252 kts | 221° |
| 2026-04-29 12:58 | 37.62566 | -5.54665 | 6252 ft | 251 kts | 221° |
| 2026-04-29 12:58 | 37.61279 | -5.56128 | 5935 ft | 249 kts | 221° |
| 2026-04-29 12:58 | 37.60010 | -5.57570 | 5623 ft | 248 kts | 221° |
| 2026-04-29 12:58 | 37.58723 | -5.59030 | 5303 ft | 247 kts | 221° |
| 2026-04-29 12:59 | 37.57456 | -5.60467 | 4984 ft | 245 kts | 221° |
| 2026-04-29 12:59 | 37.56193 | -5.61899 | 4684 ft | 243 kts | 221° |
| 2026-04-29 12:59 | 37.54942 | -5.63277 | 4519 ft | 235 kts | 214° |
| 2026-04-29 12:59 | 37.53451 | -5.64016 | 4140 ft | 236 kts | 185° |
| 2026-04-29 13:00 | 37.51825 | -5.63723 | 3766 ft | 233 kts | 160° |
| 2026-04-29 13:00 | 37.50438 | -5.62746 | 3466 ft | 227 kts | 149° |
| 2026-04-29 13:00 | 37.49141 | -5.61703 | 3374 ft | 214 kts | 153° |
| 2026-04-29 13:00 | 37.47870 | -5.60867 | 3352 ft | 199 kts | 159° |
| 2026-04-29 13:01 | 37.46640 | -5.60262 | 3407 ft | 179 kts | 165° |
| 2026-04-29 13:01 | 37.45488 | -5.59862 | 3312 ft | 164 kts | 173° |
| 2026-04-29 13:01 | 37.44421 | -5.59997 | 3163 ft | 149 kts | 205° |
| 2026-04-29 13:01 | 37.43631 | -5.60748 | 3062 ft | 142 kts | 224° |
| 2026-04-29 13:02 | 37.42942 | -5.61642 | 2969 ft | 141 kts | 225° |
| 2026-04-29 13:02 | 37.42271 | -5.62528 | 2861 ft | 141 kts | 225° |
| 2026-04-29 13:02 | 37.41705 | -5.63541 | 2608 ft | 142 kts | 253° |
| 2026-04-29 13:02 | 37.41668 | -5.64732 | 2413 ft | 136 kts | 271° |
| 2026-04-29 13:03 | 37.41757 | -5.65904 | 2234 ft | 133 kts | 271° |
| 2026-04-29 13:03 | 37.41825 | -5.67059 | 2062 ft | 132 kts | 269° |
| 2026-04-29 13:03 | 37.41864 | -5.68217 | 1959 ft | 130 kts | 268° |
| 2026-04-29 13:03 | 37.41884 | -5.69351 | 1980 ft | 131 kts | 267° |
| 2026-04-29 13:04 | 37.41890 | -5.70506 | 1986 ft | 131 kts | 266° |
| 2026-04-29 13:04 | 37.41889 | -5.71647 | 1995 ft | 131 kts | 266° |
| 2026-04-29 13:04 | 37.41883 | -5.72791 | 2016 ft | 131 kts | 266° |
| 2026-04-29 13:04 | 37.41875 | -5.73944 | 2043 ft | 132 kts | 265° |
| 2026-04-29 13:05 | 37.41867 | -5.75092 | 1984 ft | 131 kts | 266° |
| 2026-04-29 13:05 | 37.41858 | -5.76245 | 1818 ft | 131 kts | 266° |
| 2026-04-29 13:05 | 37.41851 | -5.77389 | 1647 ft | 130 kts | 266° |
| 2026-04-29 13:05 | 37.41840 | -5.78523 | 1462 ft | 130 kts | 266° |
| 2026-04-29 13:06 | 37.41826 | -5.79655 | 1294 ft | 130 kts | 266° |
| 2026-04-29 13:06 | 37.41824 | -5.80785 | 1133 ft | 130 kts | 268° |
| 2026-04-29 13:06 | 37.41830 | -5.81916 | 976 ft | 130 kts | 266° |
| 2026-04-29 13:06 | 37.41827 | -5.83055 | 781 ft | 129 kts | 268° |
| 2026-04-29 13:07 | 37.41816 | -5.84171 | 624 ft | 128 kts | 267° |
| 2026-04-29 13:07 | 37.41809 | -5.85302 | 468 ft | 128 kts | 268° |
| 2026-04-29 13:07 | 37.41810 | -5.86431 | 291 ft | 130 kts | 266° |
| 2026-04-29 13:07 | 37.41797 | -5.87558 | 138 ft | 128 kts | 269° |
| 2026-04-29 13:08 | 37.41794 | -5.88598 | 95 ft | 99 kts | 270° |
| 2026-04-29 13:08 | 37.41791 | -5.89270 | 93 ft | 62 kts | 270° |
| 2026-04-29 13:08 | 37.41792 | -5.89684 | 87 ft | 24 kts | 271° |
| 2026-04-29 13:08 | 37.41876 | -5.89822 | 87 ft | 16 kts | 339° |
| 2026-04-29 13:09 | 37.41974 | -5.89869 | 90 ft | 14 kts | 338° |
| 2026-04-29 13:09 | 37.42056 | -5.89913 | 92 ft | 11 kts | 336° |
| 2026-04-29 13:09 | 37.42121 | -5.89928 | 95 ft | 8 kts | 25° |
| 2026-04-29 13:09 | 37.42163 | -5.89896 | 96 ft | 6 kts | 0° |
| 2026-04-29 13:10 | 37.42197 | -5.89926 | 97 ft | 5 kts | 315° |
| 2026-04-29 13:10 | 37.42215 | -5.89949 | 97 ft | 1 kts | 314° |
| 2026-04-29 13:10 | 37.42215 | -5.89950 | 97 ft | 0 kts | 314° |